Flight Track Log - Related Links

Times and Time Zones

All times are in EST time to prevent confusion due to time zone crossing. See the N121JM flight status page for this flight to view local times or setup timezone preferences in your user account.

Time Position Orientation Groundspeed Altitude Reporting Facility
EST Latitude Longitude Course Direction KTS MPH feet Rate Location/Type
Thu 02:17:24 PM 40.7333 -74.4333 227° Southwest 201 231 3,500  Level New York TRACON
Thu 02:18:24 PM 40.6667 -74.4000 159° South 242 278 5,700 2,100 Climbing New York TRACON
Thu 02:19:24 PM 40.6000 -74.3833 169° South 268 308 7,700 2,300 Climbing New York TRACON
Thu 02:20:24 PM 40.5333 -74.4333 210° Southwest 271 312 10,300 1,950 Climbing New York TRACON
Thu 02:21:24 PM 40.5167 -74.5333 258° West 309 356 11,600 1,104 Climbing New York TRACON
Thu 02:22:00 PM 40.6149 -74.8267 227° Southwest  Level Estimated
Thu 02:23:45 PM 40.4511 -74.8047 252° West 350 403 14,000  Level New York Center
Thu 02:24:45 PM 40.4231 -74.9503 256° West 374 430 14,000 1,136 Level New York Center
Thu 02:30:16 PM 40.1984 -75.5970 256° West 422 486 21,400 1,212 Climbing FlightAware ADS-B
Thu 02:31:11 PM 40.1253 -75.7404 236° Southwest 422 486 21,800 447 Climbing FlightAware ADS-B (LFML / MRS)
Thu 02:31:50 PM 40.0624 -75.8647 237° Southwest 425 489 22,100 56 Climbing FlightAware ADS-B
Thu 02:32:59 PM 40.0271 -75.9322 236° Southwest 417 480 21,900 -408 Descending FlightAware ADS-B (LFML / MRS)
Thu 02:33:33 PM 39.9784 -76.0253 236° Southwest 415 478 21,400 -1,091 Descending FlightAware ADS-B (LFML / MRS)
Thu 02:34:16 PM 39.9103 -76.1668 238° Southwest 418 481 20,500 -1,297 Descending FlightAware ADS-B (LFML / MRS)
Thu 02:34:47 PM 39.8749 -76.2410 238° Southwest 417 480 19,800 -1,169 Descending FlightAware ADS-B (LFML / MRS)
Thu 02:35:33 PM 39.8465 -76.2992 238° Southwest 406 467 19,000 -1,341 Descending FlightAware ADS-B (LFML / MRS)
Thu 02:36:12 PM 39.7865 -76.4131 236° Southwest 392 451 17,900 -1,737 Descending FlightAware ADS-B (LFML / MRS)
Thu 02:36:49 PM 39.7485 -76.4832 235° Southwest 380 437 16,800 -2,338 Descending FlightAware ADS-B (LFML / MRS)
Thu 02:37:29 PM 39.7103 -76.5569 236° Southwest 366 421 14,900 -2,667 Descending FlightAware ADS-B (LFML / MRS)
Thu 02:38:37 PM 39.6500 -76.6833 236° Southwest 347 399 12,000 -2,537 Descending Potomac TRACON
Thu 02:39:32 PM 39.6167 -76.7667 243° Southwest 299 344 9,700 -2,281 Descending Potomac TRACON
Thu 02:40:38 PM 39.5833 -76.8667 247° West 274 315 7,400 -1,857 Descending Potomac TRACON
Thu 02:41:38 PM 39.5667 -76.9500 255° West 248 285 5,800 -1,900 Descending Potomac TRACON
Thu 02:42:38 PM 39.5333 -77.0333 243° Southwest 230 265 3,600 -1,461 Descending Potomac TRACON
Thu 02:43:33 PM 39.5167 -77.0833 247° West 200 230 3,000 -313 Descending Potomac TRACON
Thu 02:44:33 PM 39.5000 -77.1500 252° West 195 224 3,000 -198 Level Potomac TRACON
Thu 02:45:34 PM 39.5000 -77.2333 270° West 205 236 2,600 -520 Descending Potomac TRACON
Thu 02:46:40 PM 39.4833 -77.3000 252° West 174 200 1,900 -400 Descending Potomac TRACON
Thu 02:47:34 PM 39.4667 -77.3500 247° West 157 181 1,800 -111 Descending Potomac TRACON

Login

Don't have an account? Register now (free) for customized features, flight alerts, and more!